sensor_id;sensor_type;location;lat;lon;timestamp;temperature;humidity
11009;DHT22;5557;51.670;7.788;2023-04-03T00:01:10;3.70;4.30
11009;DHT22;5557;51.670;7.788;2023-04-03T00:03:37;3.70;5.70
11009;DHT22;5557;51.670;7.788;2023-04-03T00:06:05;3.60;5.70
11009;DHT22;5557;51.670;7.788;2023-04-03T00:08:34;3.60;5.70
11009;DHT22;5557;51.670;7.788;2023-04-03T00:11:01;3.60;5.70
11009;DHT22;5557;51.670;7.788;2023-04-03T00:13:29;3.50;5.60
11009;DHT22;5557;51.670;7.788;2023-04-03T00:15:56;3.50;5.60
11009;DHT22;5557;51.670;7.788;2023-04-03T00:18:23;3.50;5.60
11009;DHT22;5557;51.670;7.788;2023-04-03T00:20:50;3.50;5.60
11009;DHT22;5557;51.670;7.788;2023-04-03T00:23:17;3.50;5.80
11009;DHT22;5557;51.670;7.788;2023-04-03T00:25:44;3.40;5.50
11009;DHT22;5557;51.670;7.788;2023-04-03T00:28:12;3.40;5.90
11009;DHT22;5557;51.670;7.788;2023-04-03T00:30:39;3.30;6.90
11009;DHT22;5557;51.670;7.788;2023-04-03T00:33:06;3.30;7.00
11009;DHT22;5557;51.670;7.788;2023-04-03T00:35:36;3.30;6.50
11009;DHT22;5557;51.670;7.788;2023-04-03T00:38:03;3.20;8.40
11009;DHT22;5557;51.670;7.788;2023-04-03T00:40:38;3.10;9.80
11009;DHT22;5557;51.670;7.788;2023-04-03T00:43:12;3.10;10.70
11009;DHT22;5557;51.670;7.788;2023-04-03T00:45:42;3.10;10.80
11009;DHT22;5557;51.670;7.788;2023-04-03T00:48:22;3.10;11.00
11009;DHT22;5557;51.670;7.788;2023-04-03T00:50:50;3.00;12.00
11009;DHT22;5557;51.670;7.788;2023-04-03T00:53:26;3.00;11.60
11009;DHT22;5557;51.670;7.788;2023-04-03T00:55:55;3.00;10.50
11009;DHT22;5557;51.670;7.788;2023-04-03T00:58:28;3.00;8.80
11009;DHT22;5557;51.670;7.788;2023-04-03T01:00:58;3.00;8.50
11009;DHT22;5557;51.670;7.788;2023-04-03T01:03:26;2.90;9.70
11009;DHT22;5557;51.670;7.788;2023-04-03T01:05:53;2.90;10.20
11009;DHT22;5557;51.670;7.788;2023-04-03T01:08:20;2.80;10.90
11009;DHT22;5557;51.670;7.788;2023-04-03T01:10:47;2.80;12.30
11009;DHT22;5557;51.670;7.788;2023-04-03T01:13:33;2.70;13.30
11009;DHT22;5557;51.670;7.788;2023-04-03T01:16:04;2.60;14.80
11009;DHT22;5557;51.670;7.788;2023-04-03T01:18:33;2.60;15.00
11009;DHT22;5557;51.670;7.788;2023-04-03T01:24:36;2.60;15.20
11009;DHT22;5557;51.670;7.788;2023-04-03T01:27:08;2.50;16.10
11009;DHT22;5557;51.670;7.788;2023-04-03T01:29:41;2.40;16.00
11009;DHT22;5557;51.670;7.788;2023-04-03T01:32:10;2.40;17.50
11009;DHT22;5557;51.670;7.788;2023-04-03T01:34:37;2.30;17.10
11009;DHT22;5557;51.670;7.788;2023-04-03T01:37:04;2.30;17.40
11009;DHT22;5557;51.670;7.788;2023-04-03T01:39:31;2.30;17.00
11009;DHT22;5557;51.670;7.788;2023-04-03T01:42:00;2.30;15.60
11009;DHT22;5557;51.670;7.788;2023-04-03T01:44:27;2.30;15.60
11009;DHT22;5557;51.670;7.788;2023-04-03T01:46:54;2.30;16.00
11009;DHT22;5557;51.670;7.788;2023-04-03T01:49:21;2.10;17.70
11009;DHT22;5557;51.670;7.788;2023-04-03T01:51:48;2.10;19.40
11009;DHT22;5557;51.670;7.788;2023-04-03T01:54:15;2.10;19.40
11009;DHT22;5557;51.670;7.788;2023-04-03T01:56:42;2.10;19.80
11009;DHT22;5557;51.670;7.788;2023-04-03T01:59:09;2.10;20.80
11009;DHT22;5557;51.670;7.788;2023-04-03T02:01:38;2.00;21.80
11009;DHT22;5557;51.670;7.788;2023-04-03T02:04:05;2.00;21.80
11009;DHT22;5557;51.670;7.788;2023-04-03T02:06:33;2.00;20.90
11009;DHT22;5557;51.670;7.788;2023-04-03T02:09:01;2.00;20.70
11009;DHT22;5557;51.670;7.788;2023-04-03T02:11:28;2.00;21.80
11009;DHT22;5557;51.670;7.788;2023-04-03T02:13:58;1.90;22.00
11009;DHT22;5557;51.670;7.788;2023-04-03T02:16:25;1.90;22.40
11009;DHT22;5557;51.670;7.788;2023-04-03T02:18:52;1.90;22.50
11009;DHT22;5557;51.670;7.788;2023-04-03T02:21:19;1.80;22.60
11009;DHT22;5557;51.670;7.788;2023-04-03T02:23:47;1.80;22.60
11009;DHT22;5557;51.670;7.788;2023-04-03T02:26:16;1.80;23.50
11009;DHT22;5557;51.670;7.788;2023-04-03T02:28:43;1.80;23.90
11009;DHT22;5557;51.670;7.788;2023-04-03T02:31:10;1.70;25.40
11009;DHT22;5557;51.670;7.788;2023-04-03T02:33:40;1.70;25.80
11009;DHT22;5557;51.670;7.788;2023-04-03T02:36:08;1.70;25.30
11009;DHT22;5557;51.670;7.788;2023-04-03T02:38:35;1.70;25.00
11009;DHT22;5557;51.670;7.788;2023-04-03T02:41:04;1.70;25.50
11009;DHT22;5557;51.670;7.788;2023-04-03T02:43:34;1.70;25.10
11009;DHT22;5557;51.670;7.788;2023-04-03T02:46:05;1.70;24.70
11009;DHT22;5557;51.670;7.788;2023-04-03T02:48:37;1.60;24.90
11009;DHT22;5557;51.670;7.788;2023-04-03T02:51:12;1.60;24.90
11009;DHT22;5557;51.670;7.788;2023-04-03T02:53:44;1.60;25.30
11009;DHT22;5557;51.670;7.788;2023-04-03T02:56:14;1.60;24.30
11009;DHT22;5557;51.670;7.788;2023-04-03T02:58:40;1.60;25.10
11009;DHT22;5557;51.670;7.788;2023-04-03T03:01:08;1.60;25.70
11009;DHT22;5557;51.670;7.788;2023-04-03T03:03:38;1.50;25.70
11009;DHT22;5557;51.670;7.788;2023-04-03T03:06:07;1.50;25.80
11009;DHT22;5557;51.670;7.788;2023-04-03T03:08:37;1.40;26.90
11009;DHT22;5557;51.670;7.788;2023-04-03T03:11:05;1.30;28.50
11009;DHT22;5557;51.670;7.788;2023-04-03T03:13:34;1.30;29.80
11009;DHT22;5557;51.670;7.788;2023-04-03T03:16:02;1.20;30.30
11009;DHT22;5557;51.670;7.788;2023-04-03T03:18:30;1.10;33.40
11009;DHT22;5557;51.670;7.788;2023-04-03T03:21:04;1.10;35.50
11009;DHT22;5557;51.670;7.788;2023-04-03T03:23:34;1.00;36.20
11009;DHT22;5557;51.670;7.788;2023-04-03T03:26:08;0.90;36.80
11009;DHT22;5557;51.670;7.788;2023-04-03T03:28:39;0.90;39.40
11009;DHT22;5557;51.670;7.788;2023-04-03T03:31:11;0.90;39.50
11009;DHT22;5557;51.670;7.788;2023-04-03T03:33:39;0.90;39.40
11009;DHT22;5557;51.670;7.788;2023-04-03T03:36:07;0.90;39.70
11009;DHT22;5557;51.670;7.788;2023-04-03T03:38:39;0.90;38.40
11009;DHT22;5557;51.670;7.788;2023-04-03T03:41:09;0.90;39.10
11009;DHT22;5557;51.670;7.788;2023-04-03T03:43:36;0.90;39.70
11009;DHT22;5557;51.670;7.788;2023-04-03T03:46:06;0.90;39.40
11009;DHT22;5557;51.670;7.788;2023-04-03T03:48:33;0.90;37.60
11009;DHT22;5557;51.670;7.788;2023-04-03T03:51:00;0.90;37.80
11009;DHT22;5557;51.670;7.788;2023-04-03T03:53:27;0.90;36.30
11009;DHT22;5557;51.670;7.788;2023-04-03T03:55:54;0.90;37.40
11009;DHT22;5557;51.670;7.788;2023-04-03T03:58:21;0.80;37.80
11009;DHT22;5557;51.670;7.788;2023-04-03T04:00:48;0.90;38.30
11009;DHT22;5557;51.670;7.788;2023-04-03T04:03:15;0.90;37.40
11009;DHT22;5557;51.670;7.788;2023-04-03T04:05:43;0.80;36.80
11009;DHT22;5557;51.670;7.788;2023-04-03T04:08:10;0.80;38.50
11009;DHT22;5557;51.670;7.788;2023-04-03T04:10:38;0.70;38.90
11009;DHT22;5557;51.670;7.788;2023-04-03T04:13:05;0.70;40.50
11009;DHT22;5557;51.670;7.788;2023-04-03T04:15:32;0.60;41.10
11009;DHT22;5557;51.670;7.788;2023-04-03T04:17:59;0.50;44.00
11009;DHT22;5557;51.670;7.788;2023-04-03T04:20:26;0.50;45.90
11009;DHT22;5557;51.670;7.788;2023-04-03T04:22:53;0.50;46.00
11009;DHT22;5557;51.670;7.788;2023-04-03T04:25:20;0.50;46.40
11009;DHT22;5557;51.670;7.788;2023-04-03T04:27:47;0.50;46.10
11009;DHT22;5557;51.670;7.788;2023-04-03T04:30:14;0.40;47.20
11009;DHT22;5557;51.670;7.788;2023-04-03T04:32:41;0.40;48.50
11009;DHT22;5557;51.670;7.788;2023-04-03T04:35:08;0.30;49.70
11009;DHT22;5557;51.670;7.788;2023-04-03T04:37:35;0.30;53.00
11009;DHT22;5557;51.670;7.788;2023-04-03T04:40:02;0.20;54.20
11009;DHT22;5557;51.670;7.788;2023-04-03T04:42:29;0.20;56.20
11009;DHT22;5557;51.670;7.788;2023-04-03T04:44:56;0.20;58.10
11009;DHT22;5557;51.670;7.788;2023-04-03T04:47:23;0.20;58.40
11009;DHT22;5557;51.670;7.788;2023-04-03T04:49:51;0.20;58.50
11009;DHT22;5557;51.670;7.788;2023-04-03T04:52:18;0.10;59.70
11009;DHT22;5557;51.670;7.788;2023-04-03T04:54:45;0.10;62.10
11009;DHT22;5557;51.670;7.788;2023-04-03T04:57:12;0.00;61.60
11009;DHT22;5557;51.670;7.788;2023-04-03T04:59:39;0.00;64.00
11009;DHT22;5557;51.670;7.788;2023-04-03T05:02:06;0.00;64.50
11009;DHT22;5557;51.670;7.788;2023-04-03T05:04:35;0.00;63.80
11009;DHT22;5557;51.670;7.788;2023-04-03T05:07:02;0.00;60.60
11009;DHT22;5557;51.670;7.788;2023-04-03T05:09:29;0.10;58.30
11009;DHT22;5557;51.670;7.788;2023-04-03T05:11:56;0.00;56.70
11009;DHT22;5557;51.670;7.788;2023-04-03T05:14:23;0.10;57.00
11009;DHT22;5557;51.670;7.788;2023-04-03T05:16:50;0.30;56.20
11009;DHT22;5557;51.670;7.788;2023-04-03T05:19:21;0.60;48.40
11009;DHT22;5557;51.670;7.788;2023-04-03T05:21:48;0.90;37.70
11009;DHT22;5557;51.670;7.788;2023-04-03T05:24:16;1.20;30.30
11009;DHT22;5557;51.670;7.788;2023-04-03T05:26:43;1.40;23.50
11009;DHT22;5557;51.670;7.788;2023-04-03T05:29:10;1.60;19.90
11009;DHT22;5557;51.670;7.788;2023-04-03T05:31:38;1.70;15.20
11009;DHT22;5557;51.670;7.788;2023-04-03T05:34:05;1.80;13.70
11009;DHT22;5557;51.670;7.788;2023-04-03T05:36:32;2.00;12.10
11009;DHT22;5557;51.670;7.788;2023-04-03T05:38:59;2.00;7.90
11009;DHT22;5557;51.670;7.788;2023-04-03T05:41:26;2.10;7.40
11009;DHT22;5557;51.670;7.788;2023-04-03T05:43:53;2.10;5.00
11009;DHT22;5557;51.670;7.788;2023-04-03T05:46:20;2.20;4.80
11009;DHT22;5557;51.670;7.788;2023-04-03T05:48:48;2.30;4.80
11009;DHT22;5557;51.670;7.788;2023-04-03T05:51:18;2.40;3.70
11009;DHT22;5557;51.670;7.788;2023-04-03T05:53:45;2.60;2.20
11009;DHT22;5557;51.670;7.788;2023-04-03T05:56:13;2.70;1.70
11009;DHT22;5557;51.670;7.788;2023-04-03T05:58:42;2.70;1.00
11009;DHT22;5557;51.670;7.788;2023-04-03T06:01:08;2.70;1.00
11009;DHT22;5557;51.670;7.788;2023-04-03T06:03:36;2.70;1.00
11009;DHT22;5557;51.670;7.788;2023-04-03T06:06:05;2.60;1.00
11009;DHT22;5557;51.670;7.788;2023-04-03T06:08:32;2.60;1.00
11009;DHT22;5557;51.670;7.788;2023-04-03T06:11:00;2.70;1.00
11009;DHT22;5557;51.670;7.788;2023-04-03T06:13:28;2.80;1.00
11009;DHT22;5557;51.670;7.788;2023-04-03T06:15:56;2.80;1.00
11009;DHT22;5557;51.670;7.788;2023-04-03T06:18:23;2.80;1.00
11009;DHT22;5557;51.670;7.788;2023-04-03T06:20:50;2.80;1.00
11009;DHT22;5557;51.670;7.788;2023-04-03T06:23:17;3.00;1.00
11009;DHT22;5557;51.670;7.788;2023-04-03T06:25:44;2.80;1.00
11009;DHT22;5557;51.670;7.788;2023-04-03T06:28:11;2.90;1.00
11009;DHT22;5557;51.670;7.788;2023-04-03T06:30:38;3.00;1.00
11009;DHT22;5557;51.670;7.788;2023-04-03T06:33:06;3.00;1.00
11009;DHT22;5557;51.670;7.788;2023-04-03T06:35:33;3.20;1.00
11009;DHT22;5557;51.670;7.788;2023-04-03T06:38:01;3.40;1.00
11009;DHT22;5557;51.670;7.788;2023-04-03T06:40:31;3.20;1.00
11009;DHT22;5557;51.670;7.788;2023-04-03T06:42:58;3.30;1.00
11009;DHT22;5557;51.670;7.788;2023-04-03T06:45:25;3.40;1.00
11009;DHT22;5557;51.670;7.788;2023-04-03T06:47:52;3.50;1.00
11009;DHT22;5557;51.670;7.788;2023-04-03T06:50:19;3.60;1.00
11009;DHT22;5557;51.670;7.788;2023-04-03T06:52:47;3.50;1.00
11009;DHT22;5557;51.670;7.788;2023-04-03T06:55:13;3.60;1.00
11009;DHT22;5557;51.670;7.788;2023-04-03T06:57:40;3.80;1.00
11009;DHT22;5557;51.670;7.788;2023-04-03T07:00:08;3.90;1.00
11009;DHT22;5557;51.670;7.788;2023-04-03T07:02:36;3.90;1.00
11009;DHT22;5557;51.670;7.788;2023-04-03T07:05:04;3.70;1.00
11009;DHT22;5557;51.670;7.788;2023-04-03T07:07:31;3.70;1.00
11009;DHT22;5557;51.670;7.788;2023-04-03T07:10:00;3.70;1.00
11009;DHT22;5557;51.670;7.788;2023-04-03T07:12:26;3.80;1.00
11009;DHT22;5557;51.670;7.788;2023-04-03T07:14:54;4.00;1.00
11009;DHT22;5557;51.670;7.788;2023-04-03T07:17:21;4.10;1.00
11009;DHT22;5557;51.670;7.788;2023-04-03T07:19:48;4.10;1.00
11009;DHT22;5557;51.670;7.788;2023-04-03T07:22:15;4.40;1.00
11009;DHT22;5557;51.670;7.788;2023-04-03T07:24:43;4.40;1.00
11009;DHT22;5557;51.670;7.788;2023-04-03T07:27:10;4.40;1.00
11009;DHT22;5557;51.670;7.788;2023-04-03T07:29:37;4.50;1.00
11009;DHT22;5557;51.670;7.788;2023-04-03T07:32:04;4.80;1.00
11009;DHT22;5557;51.670;7.788;2023-04-03T07:34:32;4.70;1.00
11009;DHT22;5557;51.670;7.788;2023-04-03T07:36:59;4.70;1.00
11009;DHT22;5557;51.670;7.788;2023-04-03T07:39:27;5.20;1.00
11009;DHT22;5557;51.670;7.788;2023-04-03T07:41:54;5.40;1.00
11009;DHT22;5557;51.670;7.788;2023-04-03T07:44:24;5.60;1.00
11009;DHT22;5557;51.670;7.788;2023-04-03T07:46:52;5.60;1.00
11009;DHT22;5557;51.670;7.788;2023-04-03T07:49:19;5.50;1.00
11009;DHT22;5557;51.670;7.788;2023-04-03T07:51:46;5.70;1.00
11009;DHT22;5557;51.670;7.788;2023-04-03T07:54:13;5.70;1.00
11009;DHT22;5557;51.670;7.788;2023-04-03T07:56:40;6.00;1.00
11009;DHT22;5557;51.670;7.788;2023-04-03T07:59:08;6.00;1.00
11009;DHT22;5557;51.670;7.788;2023-04-03T08:01:35;6.10;1.00
11009;DHT22;5557;51.670;7.788;2023-04-03T08:04:02;6.80;1.00
11009;DHT22;5557;51.670;7.788;2023-04-03T08:06:31;6.40;1.00
11009;DHT22;5557;51.670;7.788;2023-04-03T08:09:12;6.20;1.00
11009;DHT22;5557;51.670;7.788;2023-04-03T08:11:41;6.40;1.00
11009;DHT22;5557;51.670;7.788;2023-04-03T08:14:08;6.60;1.00
11009;DHT22;5557;51.670;7.788;2023-04-03T08:16:37;6.60;1.00
11009;DHT22;5557;51.670;7.788;2023-04-03T08:19:04;6.80;1.00
11009;DHT22;5557;51.670;7.788;2023-04-03T08:21:37;6.90;1.00
11009;DHT22;5557;51.670;7.788;2023-04-03T08:24:06;7.60;1.00
11009;DHT22;5557;51.670;7.788;2023-04-03T08:26:33;8.20;1.00
11009;DHT22;5557;51.670;7.788;2023-04-03T08:29:01;8.00;1.00
11009;DHT22;5557;51.670;7.788;2023-04-03T08:31:28;8.10;1.00
11009;DHT22;5557;51.670;7.788;2023-04-03T08:33:57;7.80;1.00
11009;DHT22;5557;51.670;7.788;2023-04-03T08:36:26;7.90;1.00
11009;DHT22;5557;51.670;7.788;2023-04-03T08:38:54;7.50;1.00
11009;DHT22;5557;51.670;7.788;2023-04-03T08:41:47;7.00;1.00
11009;DHT22;5557;51.670;7.788;2023-04-03T08:44:39;7.00;1.00
11009;DHT22;5557;51.670;7.788;2023-04-03T08:47:38;7.20;1.00
11009;DHT22;5557;51.670;7.788;2023-04-03T08:50:12;7.50;1.00
11009;DHT22;5557;51.670;7.788;2023-04-03T08:52:48;8.20;1.00
11009;DHT22;5557;51.670;7.788;2023-04-03T08:55:43;8.30;1.00
11009;DHT22;5557;51.670;7.788;2023-04-03T08:58:16;8.30;1.00
11009;DHT22;5557;51.670;7.788;2023-04-03T09:01:05;8.10;1.00
11009;DHT22;5557;51.670;7.788;2023-04-03T09:03:39;7.90;1.00
11009;DHT22;5557;51.670;7.788;2023-04-03T09:06:22;7.80;1.00
11009;DHT22;5557;51.670;7.788;2023-04-03T09:09:12;7.60;1.00
11009;DHT22;5557;51.670;7.788;2023-04-03T09:15:15;7.60;1.00
11009;DHT22;5557;51.670;7.788;2023-04-03T09:18:03;7.10;1.00
11009;DHT22;5557;51.670;7.788;2023-04-03T09:20:45;7.30;1.00
11009;DHT22;5557;51.670;7.788;2023-04-03T09:23:26;7.40;1.00
11009;DHT22;5557;51.670;7.788;2023-04-03T09:26:01;7.60;1.00
11009;DHT22;5557;51.670;7.788;2023-04-03T09:28:38;7.80;1.00
11009;DHT22;5557;51.670;7.788;2023-04-03T09:31:29;7.90;1.00
11009;DHT22;5557;51.670;7.788;2023-04-03T09:34:03;8.50;1.00
11009;DHT22;5557;51.670;7.788;2023-04-03T09:36:52;7.90;1.00
11009;DHT22;5557;51.670;7.788;2023-04-03T09:39:27;7.60;1.00
11009;DHT22;5557;51.670;7.788;2023-04-03T09:42:11;7.50;1.00
11009;DHT22;5557;51.670;7.788;2023-04-03T09:44:39;7.40;1.00
11009;DHT22;5557;51.670;7.788;2023-04-03T09:47:29;7.20;1.00
11009;DHT22;5557;51.670;7.788;2023-04-03T09:50:20;7.50;1.00
11009;DHT22;5557;51.670;7.788;2023-04-03T09:52:50;7.50;1.00
11009;DHT22;5557;51.670;7.788;2023-04-03T09:55:27;7.90;1.00
11009;DHT22;5557;51.670;7.788;2023-04-03T10:00:35;7.80;1.00
11009;DHT22;5557;51.670;7.788;2023-04-03T10:03:03;7.60;1.00
11009;DHT22;5557;51.670;7.788;2023-04-03T10:05:41;7.50;1.00
11009;DHT22;5557;51.670;7.788;2023-04-03T10:08:22;7.40;1.00
11009;DHT22;5557;51.670;7.788;2023-04-03T10:13:57;7.20;1.00
11009;DHT22;5557;51.670;7.788;2023-04-03T10:16:34;7.30;1.00
11009;DHT22;5557;51.670;7.788;2023-04-03T10:19:31;7.10;1.00
11009;DHT22;5557;51.670;7.788;2023-04-03T10:22:02;7.00;1.00
11009;DHT22;5557;51.670;7.788;2023-04-03T10:27:59;7.30;1.00
11009;DHT22;5557;51.670;7.788;2023-04-03T10:31:13;7.40;1.00
11009;DHT22;5557;51.670;7.788;2023-04-03T10:41:56;7.30;1.00
11009;DHT22;5557;51.670;7.788;2023-04-03T10:45:24;7.40;1.00
11009;DHT22;5557;51.670;7.788;2023-04-03T10:50:51;7.20;1.00
11009;DHT22;5557;51.670;7.788;2023-04-03T10:54:41;7.40;1.00
11009;DHT22;5557;51.670;7.788;2023-04-03T10:56:50;7.40;1.00
11009;DHT22;5557;51.670;7.788;2023-04-03T10:59:40;7.30;1.00
11009;DHT22;5557;51.670;7.788;2023-04-03T11:02:23;7.20;1.00
11009;DHT22;5557;51.670;7.788;2023-04-03T11:07:40;7.40;1.00
11009;DHT22;5557;51.670;7.788;2023-04-03T11:10:26;7.40;1.00
11009;DHT22;5557;51.670;7.788;2023-04-03T11:13:01;7.60;1.00
11009;DHT22;5557;51.670;7.788;2023-04-03T11:15:30;7.50;1.00
11009;DHT22;5557;51.670;7.788;2023-04-03T11:18:08;7.50;1.00
11009;DHT22;5557;51.670;7.788;2023-04-03T11:20:42;7.30;1.00
11009;DHT22;5557;51.670;7.788;2023-04-03T11:23:25;7.20;1.00
11009;DHT22;5557;51.670;7.788;2023-04-03T11:26:11;7.60;1.00
11009;DHT22;5557;51.670;7.788;2023-04-03T11:28:39;7.90;1.00
11009;DHT22;5557;51.670;7.788;2023-04-03T11:31:20;7.90;1.00
11009;DHT22;5557;51.670;7.788;2023-04-03T11:37:39;8.20;1.00
11009;DHT22;5557;51.670;7.788;2023-04-03T11:40:25;8.40;1.00
11009;DHT22;5557;51.670;7.788;2023-04-03T11:46:09;7.90;1.00
11009;DHT22;5557;51.670;7.788;2023-04-03T11:48:45;7.80;1.00
11009;DHT22;5557;51.670;7.788;2023-04-03T11:51:38;7.70;1.00
11009;DHT22;5557;51.670;7.788;2023-04-03T11:54:43;7.70;1.00
11009;DHT22;5557;51.670;7.788;2023-04-03T12:00:48;8.00;1.00
11009;DHT22;5557;51.670;7.788;2023-04-03T12:08:44;7.60;1.00
11009;DHT22;5557;51.670;7.788;2023-04-03T12:11:26;7.60;1.00
11009;DHT22;5557;51.670;7.788;2023-04-03T12:14:04;7.50;1.00
11009;DHT22;5557;51.670;7.788;2023-04-03T12:16:59;7.50;1.00
11009;DHT22;5557;51.670;7.788;2023-04-03T12:19:32;7.50;1.00
11009;DHT22;5557;51.670;7.788;2023-04-03T12:22:11;7.40;1.00
11009;DHT22;5557;51.670;7.788;2023-04-03T12:24:41;7.20;1.00
11009;DHT22;5557;51.670;7.788;2023-04-03T12:27:44;7.20;1.00
11009;DHT22;5557;51.670;7.788;2023-04-03T12:30:28;7.50;1.00
11009;DHT22;5557;51.670;7.788;2023-04-03T12:36:28;7.40;1.00
11009;DHT22;5557;51.670;7.788;2023-04-03T12:39:17;7.70;1.00
11009;DHT22;5557;51.670;7.788;2023-04-03T12:42:02;7.60;1.00
11009;DHT22;5557;51.670;7.788;2023-04-03T12:44:48;7.30;1.00
11009;DHT22;5557;51.670;7.788;2023-04-03T12:47:33;7.30;1.00
11009;DHT22;5557;51.670;7.788;2023-04-03T12:50:04;7.40;1.00
11009;DHT22;5557;51.670;7.788;2023-04-03T12:52:46;7.20;1.00
11009;DHT22;5557;51.670;7.788;2023-04-03T12:55:18;7.10;1.00
11009;DHT22;5557;51.670;7.788;2023-04-03T12:57:47;7.00;1.00
11009;DHT22;5557;51.670;7.788;2023-04-03T13:00:43;6.90;1.00
11009;DHT22;5557;51.670;7.788;2023-04-03T13:03:24;7.00;1.00
11009;DHT22;5557;51.670;7.788;2023-04-03T13:06:00;7.10;1.00
11009;DHT22;5557;51.670;7.788;2023-04-03T13:08:28;7.20;1.00
11009;DHT22;5557;51.670;7.788;2023-04-03T13:11:02;7.10;1.00
11009;DHT22;5557;51.670;7.788;2023-04-03T13:13:29;7.20;1.00
11009;DHT22;5557;51.670;7.788;2023-04-03T13:15:57;7.20;1.00
11009;DHT22;5557;51.670;7.788;2023-04-03T13:18:34;7.40;1.00
11009;DHT22;5557;51.670;7.788;2023-04-03T13:21:06;7.20;1.00
11009;DHT22;5557;51.670;7.788;2023-04-03T13:23:36;7.20;1.00
11009;DHT22;5557;51.670;7.788;2023-04-03T13:26:06;7.40;1.00
11009;DHT22;5557;51.670;7.788;2023-04-03T13:28:34;7.40;1.00
11009;DHT22;5557;51.670;7.788;2023-04-03T13:31:27;7.50;1.00
11009;DHT22;5557;51.670;7.788;2023-04-03T13:34:10;7.40;1.00
11009;DHT22;5557;51.670;7.788;2023-04-03T13:36:45;7.40;1.00
11009;DHT22;5557;51.670;7.788;2023-04-03T13:39:26;7.20;1.00
11009;DHT22;5557;51.670;7.788;2023-04-03T13:41:55;7.10;1.00
11009;DHT22;5557;51.670;7.788;2023-04-03T13:44:29;7.30;1.00
11009;DHT22;5557;51.670;7.788;2023-04-03T13:49:32;7.20;1.00
11009;DHT22;5557;51.670;7.788;2023-04-03T13:52:00;7.10;1.00
11009;DHT22;5557;51.670;7.788;2023-04-03T13:54:38;7.20;1.00
11009;DHT22;5557;51.670;7.788;2023-04-03T13:57:14;7.10;1.00
11009;DHT22;5557;51.670;7.788;2023-04-03T13:59:42;6.90;1.00
11009;DHT22;5557;51.670;7.788;2023-04-03T14:02:38;7.10;1.00
11009;DHT22;5557;51.670;7.788;2023-04-03T14:05:06;6.90;1.00
11009;DHT22;5557;51.670;7.788;2023-04-03T14:07:34;7.00;1.00
11009;DHT22;5557;51.670;7.788;2023-04-03T14:10:02;7.20;1.00
11009;DHT22;5557;51.670;7.788;2023-04-03T14:12:36;7.20;1.00
11009;DHT22;5557;51.670;7.788;2023-04-03T14:15:20;7.20;1.00
11009;DHT22;5557;51.670;7.788;2023-04-03T14:17:47;7.20;1.00
11009;DHT22;5557;51.670;7.788;2023-04-03T14:20:17;7.30;1.00
11009;DHT22;5557;51.670;7.788;2023-04-03T14:22:44;7.20;1.00
11009;DHT22;5557;51.670;7.788;2023-04-03T14:25:12;6.90;1.00
11009;DHT22;5557;51.670;7.788;2023-04-03T14:27:44;7.00;1.00
11009;DHT22;5557;51.670;7.788;2023-04-03T14:30:27;7.00;1.00
11009;DHT22;5557;51.670;7.788;2023-04-03T14:32:56;7.10;1.00
11009;DHT22;5557;51.670;7.788;2023-04-03T14:35:25;7.10;1.00
11009;DHT22;5557;51.670;7.788;2023-04-03T14:37:53;7.10;1.00
11009;DHT22;5557;51.670;7.788;2023-04-03T14:40:26;7.00;1.00
11009;DHT22;5557;51.670;7.788;2023-04-03T14:42:53;7.00;1.00
11009;DHT22;5557;51.670;7.788;2023-04-03T14:45:22;6.90;1.00
11009;DHT22;5557;51.670;7.788;2023-04-03T14:47:54;7.00;1.00
11009;DHT22;5557;51.670;7.788;2023-04-03T14:50:25;7.10;1.00
11009;DHT22;5557;51.670;7.788;2023-04-03T14:52:56;7.20;1.00
11009;DHT22;5557;51.670;7.788;2023-04-03T14:55:24;7.10;1.00
11009;DHT22;5557;51.670;7.788;2023-04-03T14:57:52;7.00;1.00
11009;DHT22;5557;51.670;7.788;2023-04-03T15:00:21;7.00;1.00
11009;DHT22;5557;51.670;7.788;2023-04-03T15:02:49;7.00;1.00
11009;DHT22;5557;51.670;7.788;2023-04-03T15:05:16;7.10;1.00
11009;DHT22;5557;51.670;7.788;2023-04-03T15:07:50;7.20;1.00
11009;DHT22;5557;51.670;7.788;2023-04-03T15:10:21;7.20;1.00
11009;DHT22;5557;51.670;7.788;2023-04-03T15:12:50;7.20;1.00
11009;DHT22;5557;51.670;7.788;2023-04-03T15:15:19;7.10;1.00
11009;DHT22;5557;51.670;7.788;2023-04-03T15:17:55;7.00;1.00
11009;DHT22;5557;51.670;7.788;2023-04-03T15:20:26;7.10;1.00
11009;DHT22;5557;51.670;7.788;2023-04-03T15:22:57;7.20;1.00
11009;DHT22;5557;51.670;7.788;2023-04-03T15:25:27;7.30;1.00
11009;DHT22;5557;51.670;7.788;2023-04-03T15:27:55;7.40;1.00
11009;DHT22;5557;51.670;7.788;2023-04-03T15:30:22;7.30;1.00
11009;DHT22;5557;51.670;7.788;2023-04-03T15:32:49;7.20;1.00
11009;DHT22;5557;51.670;7.788;2023-04-03T15:35:17;7.20;1.00
11009;DHT22;5557;51.670;7.788;2023-04-03T15:37:44;7.20;1.00
11009;DHT22;5557;51.670;7.788;2023-04-03T15:40:12;7.20;1.00
11009;DHT22;5557;51.670;7.788;2023-04-03T15:42:39;7.20;1.00
11009;DHT22;5557;51.670;7.788;2023-04-03T15:45:07;7.20;1.00
11009;DHT22;5557;51.670;7.788;2023-04-03T15:47:35;7.10;1.00
11009;DHT22;5557;51.670;7.788;2023-04-03T15:50:03;7.10;1.00
11009;DHT22;5557;51.670;7.788;2023-04-03T15:52:33;7.10;1.00
11009;DHT22;5557;51.670;7.788;2023-04-03T15:55:00;7.10;1.00
11009;DHT22;5557;51.670;7.788;2023-04-03T15:57:27;7.00;1.00
11009;DHT22;5557;51.670;7.788;2023-04-03T15:59:54;7.10;1.00
11009;DHT22;5557;51.670;7.788;2023-04-03T16:02:21;6.90;1.00
11009;DHT22;5557;51.670;7.788;2023-04-03T16:04:48;6.90;1.00
11009;DHT22;5557;51.670;7.788;2023-04-03T16:07:15;7.00;1.00
11009;DHT22;5557;51.670;7.788;2023-04-03T16:09:42;7.00;1.00
11009;DHT22;5557;51.670;7.788;2023-04-03T16:12:09;7.00;1.00
11009;DHT22;5557;51.670;7.788;2023-04-03T16:14:36;7.10;1.00
11009;DHT22;5557;51.670;7.788;2023-04-03T16:17:03;7.10;1.00
11009;DHT22;5557;51.670;7.788;2023-04-03T16:19:30;7.10;1.00
11009;DHT22;5557;51.670;7.788;2023-04-03T16:21:58;7.00;1.00
11009;DHT22;5557;51.670;7.788;2023-04-03T16:24:25;7.10;1.00
11009;DHT22;5557;51.670;7.788;2023-04-03T16:26:52;7.10;1.00
11009;DHT22;5557;51.670;7.788;2023-04-03T16:29:20;7.10;1.00
11009;DHT22;5557;51.670;7.788;2023-04-03T16:31:48;7.10;1.00
11009;DHT22;5557;51.670;7.788;2023-04-03T16:34:15;7.10;1.00
11009;DHT22;5557;51.670;7.788;2023-04-03T16:36:42;7.00;1.00
11009;DHT22;5557;51.670;7.788;2023-04-03T16:39:09;7.00;1.00
11009;DHT22;5557;51.670;7.788;2023-04-03T16:41:37;7.00;1.00
11009;DHT22;5557;51.670;7.788;2023-04-03T16:44:04;7.00;1.00
11009;DHT22;5557;51.670;7.788;2023-04-03T16:46:34;7.10;1.00
11009;DHT22;5557;51.670;7.788;2023-04-03T16:49:01;7.10;1.00
11009;DHT22;5557;51.670;7.788;2023-04-03T16:51:28;7.20;1.00
11009;DHT22;5557;51.670;7.788;2023-04-03T16:53:55;7.20;1.00
11009;DHT22;5557;51.670;7.788;2023-04-03T16:56:22;7.10;1.00
11009;DHT22;5557;51.670;7.788;2023-04-03T16:58:49;7.00;1.00
11009;DHT22;5557;51.670;7.788;2023-04-03T17:01:17;6.90;1.00
11009;DHT22;5557;51.670;7.788;2023-04-03T17:03:45;6.80;1.00
11009;DHT22;5557;51.670;7.788;2023-04-03T17:06:16;6.70;1.00
11009;DHT22;5557;51.670;7.788;2023-04-03T17:08:45;6.60;1.00
11009;DHT22;5557;51.670;7.788;2023-04-03T17:11:14;6.60;1.00
11009;DHT22;5557;51.670;7.788;2023-04-03T17:13:41;6.50;1.00
11009;DHT22;5557;51.670;7.788;2023-04-03T17:16:11;6.50;1.00
11009;DHT22;5557;51.670;7.788;2023-04-03T17:18:40;6.40;1.00
11009;DHT22;5557;51.670;7.788;2023-04-03T17:21:08;6.40;1.00
11009;DHT22;5557;51.670;7.788;2023-04-03T17:23:36;6.40;1.00
11009;DHT22;5557;51.670;7.788;2023-04-03T17:26:04;6.40;1.00
11009;DHT22;5557;51.670;7.788;2023-04-03T17:28:31;6.40;1.00
11009;DHT22;5557;51.670;7.788;2023-04-03T17:31:00;6.40;1.00